sensor_id;sensor_type;location;lat;lon;timestamp;P1;durP1;ratioP1;P2;durP2;ratioP2
11008;SDS011;5557;51.670;7.788;2022-07-09T00:02:09;8.07;;;7.47;;
11008;SDS011;5557;51.670;7.788;2022-07-09T00:04:36;14.80;;;7.17;;
11008;SDS011;5557;51.670;7.788;2022-07-09T00:07:03;13.60;;;7.37;;
11008;SDS011;5557;51.670;7.788;2022-07-09T00:09:30;7.87;;;7.07;;
11008;SDS011;5557;51.670;7.788;2022-07-09T00:11:57;10.73;;;7.13;;
11008;SDS011;5557;51.670;7.788;2022-07-09T00:14:24;9.00;;;7.20;;
11008;SDS011;5557;51.670;7.788;2022-07-09T00:16:51;7.43;;;6.70;;
11008;SDS011;5557;51.670;7.788;2022-07-09T00:19:18;10.77;;;6.90;;
11008;SDS011;5557;51.670;7.788;2022-07-09T00:21:46;12.00;;;7.10;;
11008;SDS011;5557;51.670;7.788;2022-07-09T00:24:12;6.17;;;5.53;;
11008;SDS011;5557;51.670;7.788;2022-07-09T00:26:39;8.90;;;6.60;;
11008;SDS011;5557;51.670;7.788;2022-07-09T00:29:06;7.27;;;6.57;;
11008;SDS011;5557;51.670;7.788;2022-07-09T00:31:33;10.37;;;6.23;;
11008;SDS011;5557;51.670;7.788;2022-07-09T00:34:00;8.13;;;7.27;;
11008;SDS011;5557;51.670;7.788;2022-07-09T00:36:27;6.80;;;6.10;;
11008;SDS011;5557;51.670;7.788;2022-07-09T00:38:54;6.87;;;6.27;;
11008;SDS011;5557;51.670;7.788;2022-07-09T00:41:22;8.67;;;6.70;;
11008;SDS011;5557;51.670;7.788;2022-07-09T00:43:49;8.00;;;7.20;;
11008;SDS011;5557;51.670;7.788;2022-07-09T00:46:17;7.33;;;6.67;;
11008;SDS011;5557;51.670;7.788;2022-07-09T00:48:44;8.93;;;7.07;;
11008;SDS011;5557;51.670;7.788;2022-07-09T00:51:12;7.43;;;6.80;;
11008;SDS011;5557;51.670;7.788;2022-07-09T00:53:40;7.70;;;7.00;;
11008;SDS011;5557;51.670;7.788;2022-07-09T00:56:08;7.70;;;6.90;;
11008;SDS011;5557;51.670;7.788;2022-07-09T00:58:35;8.10;;;7.50;;
11008;SDS011;5557;51.670;7.788;2022-07-09T01:01:03;8.93;;;6.70;;
11008;SDS011;5557;51.670;7.788;2022-07-09T01:03:32;9.13;;;6.87;;
11008;SDS011;5557;51.670;7.788;2022-07-09T01:05:59;7.70;;;6.73;;
11008;SDS011;5557;51.670;7.788;2022-07-09T01:08:26;6.80;;;6.40;;
11008;SDS011;5557;51.670;7.788;2022-07-09T01:10:53;7.30;;;6.67;;
11008;SDS011;5557;51.670;7.788;2022-07-09T01:13:21;7.77;;;6.57;;
11008;SDS011;5557;51.670;7.788;2022-07-09T01:15:48;9.63;;;6.63;;
11008;SDS011;5557;51.670;7.788;2022-07-09T01:18:15;8.27;;;7.33;;
11008;SDS011;5557;51.670;7.788;2022-07-09T01:20:42;16.40;;;7.60;;
11008;SDS011;5557;51.670;7.788;2022-07-09T01:23:09;8.60;;;7.77;;
11008;SDS011;5557;51.670;7.788;2022-07-09T01:25:37;8.27;;;7.50;;
11008;SDS011;5557;51.670;7.788;2022-07-09T01:28:10;10.27;;;7.07;;
11008;SDS011;5557;51.670;7.788;2022-07-09T01:30:38;11.77;;;7.97;;
11008;SDS011;5557;51.670;7.788;2022-07-09T01:33:06;8.60;;;7.53;;
11008;SDS011;5557;51.670;7.788;2022-07-09T01:35:33;8.70;;;7.37;;
11008;SDS011;5557;51.670;7.788;2022-07-09T01:38:00;7.10;;;6.60;;
11008;SDS011;5557;51.670;7.788;2022-07-09T01:40:27;11.93;;;7.97;;
11008;SDS011;5557;51.670;7.788;2022-07-09T01:42:54;17.30;;;7.50;;
11008;SDS011;5557;51.670;7.788;2022-07-09T01:45:21;9.70;;;7.83;;
11008;SDS011;5557;51.670;7.788;2022-07-09T01:47:48;10.40;;;8.20;;
11008;SDS011;5557;51.670;7.788;2022-07-09T01:50:15;8.07;;;7.37;;
11008;SDS011;5557;51.670;7.788;2022-07-09T01:52:42;8.90;;;8.20;;
11008;SDS011;5557;51.670;7.788;2022-07-09T01:55:09;9.17;;;8.20;;
11008;SDS011;5557;51.670;7.788;2022-07-09T01:57:36;11.47;;;8.30;;
11008;SDS011;5557;51.670;7.788;2022-07-09T02:00:04;10.07;;;8.77;;
11008;SDS011;5557;51.670;7.788;2022-07-09T02:02:31;12.33;;;8.83;;
11008;SDS011;5557;51.670;7.788;2022-07-09T02:04:58;13.43;;;9.63;;
11008;SDS011;5557;51.670;7.788;2022-07-09T02:07:25;26.90;;;10.03;;
11008;SDS011;5557;51.670;7.788;2022-07-09T02:09:52;10.20;;;9.20;;
11008;SDS011;5557;51.670;7.788;2022-07-09T02:12:19;17.57;;;10.47;;
11008;SDS011;5557;51.670;7.788;2022-07-09T02:14:47;10.23;;;9.30;;
11008;SDS011;5557;51.670;7.788;2022-07-09T02:17:14;10.07;;;9.03;;
11008;SDS011;5557;51.670;7.788;2022-07-09T02:19:41;11.73;;;9.70;;
11008;SDS011;5557;51.670;7.788;2022-07-09T02:22:08;13.53;;;10.53;;
11008;SDS011;5557;51.670;7.788;2022-07-09T02:24:35;14.87;;;9.03;;
11008;SDS011;5557;51.670;7.788;2022-07-09T02:27:02;11.77;;;10.63;;
11008;SDS011;5557;51.670;7.788;2022-07-09T02:29:29;16.40;;;11.40;;
11008;SDS011;5557;51.670;7.788;2022-07-09T02:31:56;13.17;;;10.47;;
11008;SDS011;5557;51.670;7.788;2022-07-09T02:34:23;13.70;;;10.23;;
11008;SDS011;5557;51.670;7.788;2022-07-09T02:36:51;10.90;;;10.00;;
11008;SDS011;5557;51.670;7.788;2022-07-09T02:39:18;10.90;;;9.80;;
11008;SDS011;5557;51.670;7.788;2022-07-09T02:41:45;11.07;;;10.07;;
11008;SDS011;5557;51.670;7.788;2022-07-09T02:44:12;12.77;;;10.80;;
11008;SDS011;5557;51.670;7.788;2022-07-09T02:46:39;11.23;;;9.93;;
11008;SDS011;5557;51.670;7.788;2022-07-09T02:49:06;15.67;;;10.00;;
11008;SDS011;5557;51.670;7.788;2022-07-09T02:51:33;12.57;;;10.23;;
11008;SDS011;5557;51.670;7.788;2022-07-09T02:54:00;17.60;;;10.73;;
11008;SDS011;5557;51.670;7.788;2022-07-09T02:56:27;13.83;;;10.60;;
11008;SDS011;5557;51.670;7.788;2022-07-09T02:58:54;17.60;;;10.03;;
11008;SDS011;5557;51.670;7.788;2022-07-09T03:01:21;18.13;;;10.90;;
11008;SDS011;5557;51.670;7.788;2022-07-09T03:03:48;11.33;;;10.13;;
11008;SDS011;5557;51.670;7.788;2022-07-09T03:06:15;11.93;;;10.73;;
11008;SDS011;5557;51.670;7.788;2022-07-09T03:08:42;13.40;;;10.50;;
11008;SDS011;5557;51.670;7.788;2022-07-09T03:11:09;10.90;;;9.80;;
11008;SDS011;5557;51.670;7.788;2022-07-09T03:13:36;10.77;;;9.60;;
11008;SDS011;5557;51.670;7.788;2022-07-09T03:16:03;11.87;;;9.90;;
11008;SDS011;5557;51.670;7.788;2022-07-09T03:18:31;12.47;;;9.53;;
11008;SDS011;5557;51.670;7.788;2022-07-09T03:20:59;11.67;;;10.57;;
11008;SDS011;5557;51.670;7.788;2022-07-09T03:23:26;10.97;;;9.53;;
11008;SDS011;5557;51.670;7.788;2022-07-09T03:25:53;16.23;;;10.53;;
11008;SDS011;5557;51.670;7.788;2022-07-09T03:28:19;11.43;;;10.13;;
11008;SDS011;5557;51.670;7.788;2022-07-09T03:30:46;15.10;;;10.67;;
11008;SDS011;5557;51.670;7.788;2022-07-09T03:33:13;19.93;;;10.40;;
11008;SDS011;5557;51.670;7.788;2022-07-09T03:35:40;13.40;;;9.93;;
11008;SDS011;5557;51.670;7.788;2022-07-09T03:38:07;13.60;;;11.70;;
11008;SDS011;5557;51.670;7.788;2022-07-09T03:40:34;12.40;;;10.10;;
11008;SDS011;5557;51.670;7.788;2022-07-09T03:43:01;16.77;;;11.43;;
11008;SDS011;5557;51.670;7.788;2022-07-09T03:45:28;16.80;;;10.90;;
11008;SDS011;5557;51.670;7.788;2022-07-09T03:47:55;16.60;;;11.63;;
11008;SDS011;5557;51.670;7.788;2022-07-09T03:50:22;17.03;;;12.27;;
11008;SDS011;5557;51.670;7.788;2022-07-09T03:52:49;21.17;;;12.40;;
11008;SDS011;5557;51.670;7.788;2022-07-09T03:55:16;14.40;;;12.43;;
11008;SDS011;5557;51.670;7.788;2022-07-09T03:57:43;18.77;;;13.07;;
11008;SDS011;5557;51.670;7.788;2022-07-09T04:00:10;19.20;;;13.73;;
11008;SDS011;5557;51.670;7.788;2022-07-09T04:02:38;22.80;;;14.10;;
11008;SDS011;5557;51.670;7.788;2022-07-09T04:05:05;20.00;;;14.00;;
11008;SDS011;5557;51.670;7.788;2022-07-09T04:07:33;20.80;;;13.60;;
11008;SDS011;5557;51.670;7.788;2022-07-09T04:10:00;20.83;;;14.40;;
11008;SDS011;5557;51.670;7.788;2022-07-09T04:12:27;17.63;;;14.20;;
11008;SDS011;5557;51.670;7.788;2022-07-09T04:14:54;18.73;;;13.20;;
11008;SDS011;5557;51.670;7.788;2022-07-09T04:17:22;19.97;;;14.20;;
11008;SDS011;5557;51.670;7.788;2022-07-09T04:19:49;17.70;;;14.40;;
11008;SDS011;5557;51.670;7.788;2022-07-09T04:22:16;20.93;;;13.50;;
11008;SDS011;5557;51.670;7.788;2022-07-09T04:24:43;24.40;;;14.80;;
11008;SDS011;5557;51.670;7.788;2022-07-09T04:27:10;19.23;;;14.53;;
11008;SDS011;5557;51.670;7.788;2022-07-09T04:29:37;22.67;;;14.83;;
11008;SDS011;5557;51.670;7.788;2022-07-09T04:32:04;23.03;;;15.03;;
11008;SDS011;5557;51.670;7.788;2022-07-09T04:34:31;15.27;;;13.30;;
11008;SDS011;5557;51.670;7.788;2022-07-09T04:36:58;25.77;;;15.63;;
11008;SDS011;5557;51.670;7.788;2022-07-09T04:39:25;18.80;;;15.63;;
11008;SDS011;5557;51.670;7.788;2022-07-09T04:41:53;19.87;;;15.00;;
11008;SDS011;5557;51.670;7.788;2022-07-09T04:44:20;22.10;;;14.90;;
11008;SDS011;5557;51.670;7.788;2022-07-09T04:46:47;28.63;;;15.47;;
11008;SDS011;5557;51.670;7.788;2022-07-09T04:49:14;18.47;;;15.77;;
11008;SDS011;5557;51.670;7.788;2022-07-09T04:51:41;28.53;;;15.93;;
11008;SDS011;5557;51.670;7.788;2022-07-09T04:54:08;17.60;;;13.67;;
11008;SDS011;5557;51.670;7.788;2022-07-09T04:56:35;22.20;;;13.00;;
11008;SDS011;5557;51.670;7.788;2022-07-09T04:59:02;23.43;;;13.60;;
11008;SDS011;5557;51.670;7.788;2022-07-09T05:01:29;19.60;;;13.30;;
11008;SDS011;5557;51.670;7.788;2022-07-09T05:03:56;13.30;;;11.43;;
11008;SDS011;5557;51.670;7.788;2022-07-09T05:06:25;21.50;;;13.97;;
11008;SDS011;5557;51.670;7.788;2022-07-09T05:08:52;23.67;;;13.23;;
11008;SDS011;5557;51.670;7.788;2022-07-09T05:11:19;15.30;;;13.33;;
11008;SDS011;5557;51.670;7.788;2022-07-09T05:13:45;20.47;;;12.57;;
11008;SDS011;5557;51.670;7.788;2022-07-09T05:16:13;23.97;;;15.63;;
11008;SDS011;5557;51.670;7.788;2022-07-09T05:18:40;20.10;;;14.87;;
11008;SDS011;5557;51.670;7.788;2022-07-09T05:21:08;21.27;;;17.50;;
11008;SDS011;5557;51.670;7.788;2022-07-09T05:23:35;16.20;;;14.00;;
11008;SDS011;5557;51.670;7.788;2022-07-09T05:26:02;16.43;;;14.37;;
11008;SDS011;5557;51.670;7.788;2022-07-09T05:28:29;14.73;;;10.50;;
11008;SDS011;5557;51.670;7.788;2022-07-09T05:30:56;15.13;;;10.00;;
11008;SDS011;5557;51.670;7.788;2022-07-09T05:33:43;11.37;;;9.63;;
11008;SDS011;5557;51.670;7.788;2022-07-09T05:36:15;9.77;;;8.80;;
11008;SDS011;5557;51.670;7.788;2022-07-09T05:38:44;15.43;;;9.70;;
11008;SDS011;5557;51.670;7.788;2022-07-09T05:41:11;11.23;;;10.03;;
11008;SDS011;5557;51.670;7.788;2022-07-09T05:43:38;12.13;;;9.47;;
11008;SDS011;5557;51.670;7.788;2022-07-09T05:46:05;12.83;;;9.30;;
11008;SDS011;5557;51.670;7.788;2022-07-09T05:48:32;15.90;;;9.07;;
11008;SDS011;5557;51.670;7.788;2022-07-09T05:50:59;9.87;;;8.80;;
11008;SDS011;5557;51.670;7.788;2022-07-09T05:53:26;10.27;;;8.80;;
11008;SDS011;5557;51.670;7.788;2022-07-09T05:55:53;11.93;;;8.40;;
11008;SDS011;5557;51.670;7.788;2022-07-09T05:58:20;16.10;;;9.17;;
11008;SDS011;5557;51.670;7.788;2022-07-09T06:00:47;13.13;;;8.77;;
11008;SDS011;5557;51.670;7.788;2022-07-09T06:03:14;11.83;;;8.50;;
11008;SDS011;5557;51.670;7.788;2022-07-09T06:05:41;11.23;;;8.57;;
11008;SDS011;5557;51.670;7.788;2022-07-09T06:08:07;12.90;;;7.87;;
11008;SDS011;5557;51.670;7.788;2022-07-09T06:10:35;10.97;;;7.90;;
11008;SDS011;5557;51.670;7.788;2022-07-09T06:13:02;9.43;;;7.93;;
11008;SDS011;5557;51.670;7.788;2022-07-09T06:15:29;11.90;;;8.17;;
11008;SDS011;5557;51.670;7.788;2022-07-09T06:17:56;12.07;;;7.30;;
11008;SDS011;5557;51.670;7.788;2022-07-09T06:20:23;7.47;;;6.80;;
11008;SDS011;5557;51.670;7.788;2022-07-09T06:22:51;8.07;;;6.87;;
11008;SDS011;5557;51.670;7.788;2022-07-09T06:25:18;7.50;;;6.70;;
11008;SDS011;5557;51.670;7.788;2022-07-09T06:27:45;7.50;;;6.70;;
11008;SDS011;5557;51.670;7.788;2022-07-09T06:30:13;10.60;;;6.10;;
11008;SDS011;5557;51.670;7.788;2022-07-09T06:32:40;10.67;;;6.20;;
11008;SDS011;5557;51.670;7.788;2022-07-09T06:35:08;8.87;;;6.70;;
11008;SDS011;5557;51.670;7.788;2022-07-09T06:37:35;6.43;;;5.83;;
11008;SDS011;5557;51.670;7.788;2022-07-09T06:40:03;8.37;;;6.63;;
11008;SDS011;5557;51.670;7.788;2022-07-09T06:42:31;11.40;;;5.87;;
11008;SDS011;5557;51.670;7.788;2022-07-09T06:45:01;7.50;;;6.80;;
11008;SDS011;5557;51.670;7.788;2022-07-09T06:47:28;7.50;;;6.90;;
11008;SDS011;5557;51.670;7.788;2022-07-09T06:49:55;6.70;;;6.10;;
11008;SDS011;5557;51.670;7.788;2022-07-09T06:52:22;10.93;;;5.10;;
11008;SDS011;5557;51.670;7.788;2022-07-09T06:54:49;5.13;;;4.83;;
11008;SDS011;5557;51.670;7.788;2022-07-09T06:57:16;5.63;;;4.93;;
11008;SDS011;5557;51.670;7.788;2022-07-09T06:59:44;5.23;;;4.40;;
11008;SDS011;5557;51.670;7.788;2022-07-09T07:02:14;5.07;;;4.67;;
11008;SDS011;5557;51.670;7.788;2022-07-09T07:04:43;4.80;;;4.40;;
11008;SDS011;5557;51.670;7.788;2022-07-09T07:07:11;9.43;;;4.60;;
11008;SDS011;5557;51.670;7.788;2022-07-09T07:09:38;5.40;;;4.90;;
11008;SDS011;5557;51.670;7.788;2022-07-09T07:12:05;4.23;;;4.03;;
11008;SDS011;5557;51.670;7.788;2022-07-09T07:14:32;4.63;;;4.27;;
11008;SDS011;5557;51.670;7.788;2022-07-09T07:16:59;4.80;;;4.00;;
11008;SDS011;5557;51.670;7.788;2022-07-09T07:19:26;6.60;;;3.97;;
11008;SDS011;5557;51.670;7.788;2022-07-09T07:21:54;5.63;;;4.13;;
11008;SDS011;5557;51.670;7.788;2022-07-09T07:24:21;3.97;;;3.67;;
11008;SDS011;5557;51.670;7.788;2022-07-09T07:26:47;3.90;;;3.70;;
11008;SDS011;5557;51.670;7.788;2022-07-09T07:29:15;5.43;;;4.07;;
11008;SDS011;5557;51.670;7.788;2022-07-09T07:31:42;3.67;;;3.47;;
11008;SDS011;5557;51.670;7.788;2022-07-09T07:34:09;3.50;;;3.17;;
11008;SDS011;5557;51.670;7.788;2022-07-09T07:36:36;3.53;;;2.90;;
11008;SDS011;5557;51.670;7.788;2022-07-09T07:39:03;3.30;;;3.00;;
11008;SDS011;5557;51.670;7.788;2022-07-09T07:41:30;6.60;;;2.67;;
11008;SDS011;5557;51.670;7.788;2022-07-09T07:43:57;2.27;;;2.13;;
11008;SDS011;5557;51.670;7.788;2022-07-09T07:46:24;2.03;;;1.93;;
11008;SDS011;5557;51.670;7.788;2022-07-09T07:48:51;3.00;;;2.20;;
11008;SDS011;5557;51.670;7.788;2022-07-09T07:51:18;2.23;;;2.13;;
11008;SDS011;5557;51.670;7.788;2022-07-09T07:53:45;1.53;;;1.30;;
11008;SDS011;5557;51.670;7.788;2022-07-09T07:56:11;2.17;;;1.73;;
11008;SDS011;5557;51.670;7.788;2022-07-09T07:58:38;2.00;;;1.57;;
11008;SDS011;5557;51.670;7.788;2022-07-09T08:01:05;1.60;;;1.50;;
11008;SDS011;5557;51.670;7.788;2022-07-09T08:03:32;1.80;;;1.47;;
11008;SDS011;5557;51.670;7.788;2022-07-09T08:05:59;1.50;;;1.40;;
11008;SDS011;5557;51.670;7.788;2022-07-09T08:08:29;4.60;;;2.27;;
11008;SDS011;5557;51.670;7.788;2022-07-09T08:10:56;1.43;;;1.33;;
11008;SDS011;5557;51.670;7.788;2022-07-09T08:13:25;1.97;;;1.73;;
11008;SDS011;5557;51.670;7.788;2022-07-09T08:15:52;1.97;;;1.77;;
11008;SDS011;5557;51.670;7.788;2022-07-09T08:18:19;1.70;;;1.60;;
11008;SDS011;5557;51.670;7.788;2022-07-09T08:20:49;1.43;;;1.33;;
11008;SDS011;5557;51.670;7.788;2022-07-09T08:23:18;3.83;;;1.33;;
11008;SDS011;5557;51.670;7.788;2022-07-09T08:25:45;1.33;;;1.17;;
11008;SDS011;5557;51.670;7.788;2022-07-09T08:28:12;1.20;;;1.10;;
11008;SDS011;5557;51.670;7.788;2022-07-09T08:30:39;1.20;;;1.00;;
11008;SDS011;5557;51.670;7.788;2022-07-09T08:33:06;1.10;;;1.00;;
11008;SDS011;5557;51.670;7.788;2022-07-09T08:35:39;1.23;;;1.13;;
11008;SDS011;5557;51.670;7.788;2022-07-09T08:38:06;1.03;;;0.90;;
11008;SDS011;5557;51.670;7.788;2022-07-09T08:40:33;3.47;;;0.90;;
11008;SDS011;5557;51.670;7.788;2022-07-09T08:43:01;1.30;;;0.90;;
11008;SDS011;5557;51.670;7.788;2022-07-09T08:45:30;1.97;;;0.70;;
11008;SDS011;5557;51.670;7.788;2022-07-09T08:48:00;4.83;;;1.00;;
11008;SDS011;5557;51.670;7.788;2022-07-09T08:50:27;1.43;;;0.80;;
11008;SDS011;5557;51.670;7.788;2022-07-09T08:52:55;1.37;;;1.10;;
11008;SDS011;5557;51.670;7.788;2022-07-09T08:55:22;2.17;;;0.83;;
11008;SDS011;5557;51.670;7.788;2022-07-09T08:57:49;1.00;;;0.60;;
11008;SDS011;5557;51.670;7.788;2022-07-09T09:00:17;1.20;;;0.70;;
11008;SDS011;5557;51.670;7.788;2022-07-09T09:02:45;0.90;;;0.60;;
11008;SDS011;5557;51.670;7.788;2022-07-09T09:05:14;1.20;;;0.90;;
11008;SDS011;5557;51.670;7.788;2022-07-09T09:07:42;0.90;;;0.60;;
11008;SDS011;5557;51.670;7.788;2022-07-09T09:10:25;1.33;;;0.90;;
11008;SDS011;5557;51.670;7.788;2022-07-09T09:12:57;1.10;;;1.00;;
11008;SDS011;5557;51.670;7.788;2022-07-09T09:15:25;1.00;;;0.90;;
11008;SDS011;5557;51.670;7.788;2022-07-09T09:17:53;1.00;;;0.73;;
11008;SDS011;5557;51.670;7.788;2022-07-09T09:20:21;0.90;;;0.60;;
11008;SDS011;5557;51.670;7.788;2022-07-09T09:22:49;0.97;;;0.70;;
11008;SDS011;5557;51.670;7.788;2022-07-09T09:25:19;0.90;;;0.63;;
11008;SDS011;5557;51.670;7.788;2022-07-09T09:27:53;1.40;;;0.70;;
11008;SDS011;5557;51.670;7.788;2022-07-09T09:30:21;3.93;;;1.30;;
11008;SDS011;5557;51.670;7.788;2022-07-09T09:33:02;1.30;;;0.90;;
11008;SDS011;5557;51.670;7.788;2022-07-09T09:35:32;1.83;;;0.60;;
11008;SDS011;5557;51.670;7.788;2022-07-09T09:38:00;2.70;;;0.80;;
11008;SDS011;5557;51.670;7.788;2022-07-09T09:40:27;0.90;;;0.70;;
11008;SDS011;5557;51.670;7.788;2022-07-09T09:42:54;0.90;;;0.70;;
11008;SDS011;5557;51.670;7.788;2022-07-09T09:45:26;1.37;;;0.77;;
11008;SDS011;5557;51.670;7.788;2022-07-09T09:47:54;1.87;;;1.10;;
11008;SDS011;5557;51.670;7.788;2022-07-09T09:50:22;1.47;;;0.73;;
11008;SDS011;5557;51.670;7.788;2022-07-09T09:52:51;2.27;;;0.70;;
11008;SDS011;5557;51.670;7.788;2022-07-09T09:55:20;1.53;;;0.83;;
11008;SDS011;5557;51.670;7.788;2022-07-09T09:57:48;1.77;;;0.73;;
11008;SDS011;5557;51.670;7.788;2022-07-09T10:00:16;1.00;;;0.80;;
11008;SDS011;5557;51.670;7.788;2022-07-09T10:02:44;1.57;;;0.90;;
11008;SDS011;5557;51.670;7.788;2022-07-09T10:05:12;1.00;;;0.60;;
11008;SDS011;5557;51.670;7.788;2022-07-09T10:07:40;1.00;;;0.60;;
11008;SDS011;5557;51.670;7.788;2022-07-09T10:10:08;1.47;;;0.70;;
11008;SDS011;5557;51.670;7.788;2022-07-09T10:12:42;4.40;;;0.60;;
11008;SDS011;5557;51.670;7.788;2022-07-09T10:15:22;0.90;;;0.70;;
11008;SDS011;5557;51.670;7.788;2022-07-09T10:17:53;1.00;;;0.50;;
11008;SDS011;5557;51.670;7.788;2022-07-09T10:20:30;0.93;;;0.67;;
11008;SDS011;5557;51.670;7.788;2022-07-09T10:23:00;1.93;;;0.90;;
11008;SDS011;5557;51.670;7.788;2022-07-09T10:25:28;1.27;;;0.60;;
11008;SDS011;5557;51.670;7.788;2022-07-09T10:27:58;2.70;;;0.80;;
11008;SDS011;5557;51.670;7.788;2022-07-09T10:30:25;1.03;;;0.70;;
11008;SDS011;5557;51.670;7.788;2022-07-09T10:33:05;2.13;;;0.70;;
11008;SDS011;5557;51.670;7.788;2022-07-09T10:35:47;1.30;;;0.60;;
11008;SDS011;5557;51.670;7.788;2022-07-09T10:38:18;1.67;;;0.57;;
11008;SDS011;5557;51.670;7.788;2022-07-09T10:40:48;0.90;;;0.60;;
11008;SDS011;5557;51.670;7.788;2022-07-09T10:43:43;1.73;;;0.70;;
11008;SDS011;5557;51.670;7.788;2022-07-09T10:46:15;1.10;;;0.67;;
11008;SDS011;5557;51.670;7.788;2022-07-09T10:48:46;0.90;;;0.60;;
11008;SDS011;5557;51.670;7.788;2022-07-09T10:51:17;1.00;;;0.60;;
11008;SDS011;5557;51.670;7.788;2022-07-09T10:53:45;1.10;;;0.70;;
11008;SDS011;5557;51.670;7.788;2022-07-09T10:56:22;1.10;;;0.90;;
11008;SDS011;5557;51.670;7.788;2022-07-09T10:58:49;1.00;;;0.90;;
11008;SDS011;5557;51.670;7.788;2022-07-09T11:01:20;1.03;;;0.60;;
11008;SDS011;5557;51.670;7.788;2022-07-09T11:03:51;1.10;;;0.83;;
11008;SDS011;5557;51.670;7.788;2022-07-09T11:06:20;0.80;;;0.60;;
11008;SDS011;5557;51.670;7.788;2022-07-09T11:08:47;1.00;;;0.90;;
11008;SDS011;5557;51.670;7.788;2022-07-09T11:11:21;1.07;;;0.80;;
11008;SDS011;5557;51.670;7.788;2022-07-09T11:13:54;1.13;;;0.80;;
11008;SDS011;5557;51.670;7.788;2022-07-09T11:16:24;1.07;;;0.97;;
11008;SDS011;5557;51.670;7.788;2022-07-09T11:18:53;1.00;;;0.80;;
11008;SDS011;5557;51.670;7.788;2022-07-09T11:21:23;1.30;;;0.87;;
11008;SDS011;5557;51.670;7.788;2022-07-09T11:23:51;1.10;;;0.90;;
11008;SDS011;5557;51.670;7.788;2022-07-09T11:26:18;1.30;;;0.80;;
11008;SDS011;5557;51.670;7.788;2022-07-09T11:28:46;1.00;;;0.80;;
11008;SDS011;5557;51.670;7.788;2022-07-09T11:31:14;2.10;;;1.00;;
11008;SDS011;5557;51.670;7.788;2022-07-09T11:33:44;1.07;;;0.97;;
11008;SDS011;5557;51.670;7.788;2022-07-09T11:36:36;0.80;;;0.60;;
11008;SDS011;5557;51.670;7.788;2022-07-09T11:39:08;6.50;;;0.70;;
11008;SDS011;5557;51.670;7.788;2022-07-09T11:41:41;1.67;;;1.00;;
11008;SDS011;5557;51.670;7.788;2022-07-09T11:44:09;1.00;;;0.60;;
11008;SDS011;5557;51.670;7.788;2022-07-09T11:46:40;3.57;;;0.80;;
11008;SDS011;5557;51.670;7.788;2022-07-09T11:49:15;0.93;;;0.83;;
11008;SDS011;5557;51.670;7.788;2022-07-09T11:51:42;1.10;;;0.90;;
11008;SDS011;5557;51.670;7.788;2022-07-09T11:54:09;10.73;;;0.90;;
11008;SDS011;5557;51.670;7.788;2022-07-09T11:56:40;5.33;;;1.30;;
11008;SDS011;5557;51.670;7.788;2022-07-09T11:59:24;3.33;;;1.23;;
11008;SDS011;5557;51.670;7.788;2022-07-09T12:01:58;1.87;;;1.10;;
11008;SDS011;5557;51.670;7.788;2022-07-09T12:04:27;1.37;;;1.27;;
11008;SDS011;5557;51.670;7.788;2022-07-09T12:06:58;1.40;;;1.30;;
11008;SDS011;5557;51.670;7.788;2022-07-09T12:09:28;1.60;;;1.50;;
11008;SDS011;5557;51.670;7.788;2022-07-09T12:11:59;1.43;;;1.33;;
11008;SDS011;5557;51.670;7.788;2022-07-09T12:14:26;2.40;;;1.03;;
11008;SDS011;5557;51.670;7.788;2022-07-09T12:16:53;1.37;;;1.27;;
11008;SDS011;5557;51.670;7.788;2022-07-09T12:19:20;2.00;;;1.90;;
11008;SDS011;5557;51.670;7.788;2022-07-09T12:21:47;1.90;;;1.80;;
11008;SDS011;5557;51.670;7.788;2022-07-09T12:24:21;3.00;;;2.07;;
11008;SDS011;5557;51.670;7.788;2022-07-09T12:26:51;2.07;;;1.80;;
11008;SDS011;5557;51.670;7.788;2022-07-09T12:29:38;1.90;;;1.80;;
11008;SDS011;5557;51.670;7.788;2022-07-09T12:32:05;1.80;;;1.70;;
11008;SDS011;5557;51.670;7.788;2022-07-09T12:34:32;3.20;;;1.60;;
11008;SDS011;5557;51.670;7.788;2022-07-09T12:37:04;7.73;;;2.20;;
11008;SDS011;5557;51.670;7.788;2022-07-09T12:39:32;1.93;;;1.83;;
11008;SDS011;5557;51.670;7.788;2022-07-09T12:41:59;3.27;;;1.80;;
11008;SDS011;5557;51.670;7.788;2022-07-09T12:44:26;5.13;;;1.40;;
11008;SDS011;5557;51.670;7.788;2022-07-09T12:46:53;1.60;;;1.50;;
11008;SDS011;5557;51.670;7.788;2022-07-09T12:49:20;2.50;;;1.50;;
11008;SDS011;5557;51.670;7.788;2022-07-09T12:51:47;2.10;;;2.00;;
11008;SDS011;5557;51.670;7.788;2022-07-09T12:54:15;2.10;;;2.00;;
11008;SDS011;5557;51.670;7.788;2022-07-09T12:56:42;2.40;;;2.27;;
11008;SDS011;5557;51.670;7.788;2022-07-09T12:59:29;2.30;;;2.20;;
11008;SDS011;5557;51.670;7.788;2022-07-09T13:01:56;5.53;;;1.97;;
11008;SDS011;5557;51.670;7.788;2022-07-09T13:04:24;2.30;;;1.70;;
11008;SDS011;5557;51.670;7.788;2022-07-09T13:06:51;3.57;;;1.87;;
11008;SDS011;5557;51.670;7.788;2022-07-09T13:09:19;2.07;;;1.97;;
11008;SDS011;5557;51.670;7.788;2022-07-09T13:11:46;2.10;;;2.00;;
11008;SDS011;5557;51.670;7.788;2022-07-09T13:14:14;2.37;;;2.17;;
11008;SDS011;5557;51.670;7.788;2022-07-09T13:16:41;3.40;;;2.20;;
11008;SDS011;5557;51.670;7.788;2022-07-09T13:19:23;2.63;;;1.60;;
11008;SDS011;5557;51.670;7.788;2022-07-09T13:21:51;3.63;;;2.57;;
11008;SDS011;5557;51.670;7.788;2022-07-09T13:24:17;2.00;;;1.73;;
11008;SDS011;5557;51.670;7.788;2022-07-09T13:26:44;1.90;;;1.63;;
11008;SDS011;5557;51.670;7.788;2022-07-09T13:29:11;2.37;;;2.27;;
11008;SDS011;5557;51.670;7.788;2022-07-09T13:31:38;6.73;;;2.23;;
11008;SDS011;5557;51.670;7.788;2022-07-09T13:34:05;2.10;;;1.97;;
11008;SDS011;5557;51.670;7.788;2022-07-09T13:36:32;2.63;;;2.07;;
11008;SDS011;5557;51.670;7.788;2022-07-09T13:38:59;1.70;;;1.60;;
11008;SDS011;5557;51.670;7.788;2022-07-09T13:41:26;11.73;;;2.30;;
11008;SDS011;5557;51.670;7.788;2022-07-09T13:43:53;2.60;;;1.67;;
11008;SDS011;5557;51.670;7.788;2022-07-09T13:46:20;2.77;;;1.40;;
11008;SDS011;5557;51.670;7.788;2022-07-09T13:48:48;1.43;;;1.33;;
11008;SDS011;5557;51.670;7.788;2022-07-09T13:51:15;1.87;;;1.77;;
11008;SDS011;5557;51.670;7.788;2022-07-09T13:53:41;1.33;;;1.23;;
11008;SDS011;5557;51.670;7.788;2022-07-09T13:56:09;3.53;;;1.53;;
11008;SDS011;5557;51.670;7.788;2022-07-09T13:58:45;3.30;;;1.90;;
11008;SDS011;5557;51.670;7.788;2022-07-09T14:01:12;3.73;;;2.00;;
11008;SDS011;5557;51.670;7.788;2022-07-09T14:03:41;2.53;;;2.10;;
11008;SDS011;5557;51.670;7.788;2022-07-09T14:06:09;2.13;;;2.00;;
11008;SDS011;5557;51.670;7.788;2022-07-09T14:08:57;2.40;;;1.50;;
11008;SDS011;5557;51.670;7.788;2022-07-09T14:11:24;1.80;;;1.70;;
11008;SDS011;5557;51.670;7.788;2022-07-09T14:13:51;3.43;;;1.67;;
11008;SDS011;5557;51.670;7.788;2022-07-09T14:16:19;4.97;;;2.20;;
11008;SDS011;5557;51.670;7.788;2022-07-09T14:18:47;4.13;;;1.90;;
11008;SDS011;5557;51.670;7.788;2022-07-09T14:21:14;1.70;;;1.60;;
11008;SDS011;5557;51.670;7.788;2022-07-09T14:23:41;1.50;;;1.37;;
11008;SDS011;5557;51.670;7.788;2022-07-09T14:26:08;1.33;;;1.23;;
11008;SDS011;5557;51.670;7.788;2022-07-09T14:28:35;1.70;;;1.20;;
11008;SDS011;5557;51.670;7.788;2022-07-09T14:31:02;1.27;;;1.17;;
11008;SDS011;5557;51.670;7.788;2022-07-09T14:33:29;1.30;;;1.00;;
11008;SDS011;5557;51.670;7.788;2022-07-09T14:35:56;1.00;;;0.90;;
11008;SDS011;5557;51.670;7.788;2022-07-09T14:38:23;1.10;;;1.00;;
11008;SDS011;5557;51.670;7.788;2022-07-09T14:40:51;1.10;;;0.90;;
11008;SDS011;5557;51.670;7.788;2022-07-09T14:43:17;2.27;;;1.10;;
11008;SDS011;5557;51.670;7.788;2022-07-09T14:45:44;2.30;;;0.90;;
11008;SDS011;5557;51.670;7.788;2022-07-09T14:48:11;1.30;;;0.93;;
11008;SDS011;5557;51.670;7.788;2022-07-09T14:50:39;3.00;;;0.70;;
11008;SDS011;5557;51.670;7.788;2022-07-09T14:53:06;1.17;;;0.80;;
11008;SDS011;5557;51.670;7.788;2022-07-09T14:55:33;1.27;;;0.77;;
11008;SDS011;5557;51.670;7.788;2022-07-09T14:58:01;0.90;;;0.70;;
11008;SDS011;5557;51.670;7.788;2022-07-09T15:00:29;3.93;;;0.90;;